sensor_id;sensor_type;location;lat;lon;timestamp;pressure;altitude;pressure_sealevel;temperature;humidity
18819;BME280;9537;45.594;9.294;2023-04-05T00:00:29;99804.97;;;9.47;40.01
18819;BME280;9537;45.594;9.294;2023-04-05T00:01:33;99813.53;;;9.41;40.06
18819;BME280;9537;45.594;9.294;2023-04-05T00:02:34;99813.84;;;9.38;40.37
18819;BME280;9537;45.594;9.294;2023-04-05T00:03:36;99807.09;;;9.36;40.73
18819;BME280;9537;45.594;9.294;2023-04-05T00:04:37;99818.13;;;9.31;40.50
18819;BME280;9537;45.594;9.294;2023-04-05T00:05:50;99809.84;;;9.26;40.08
18819;BME280;9537;45.594;9.294;2023-04-05T00:06:55;99812.81;;;9.23;39.94
18819;BME280;9537;45.594;9.294;2023-04-05T00:07:58;99813.28;;;9.18;40.06
18819;BME280;9537;45.594;9.294;2023-04-05T00:09:02;99807.38;;;9.16;40.32
18819;BME280;9537;45.594;9.294;2023-04-05T00:10:05;99809.66;;;9.11;40.98
18819;BME280;9537;45.594;9.294;2023-04-05T00:11:06;99811.47;;;9.11;40.87
18819;BME280;9537;45.594;9.294;2023-04-05T00:12:10;99813.44;;;9.09;41.25
18819;BME280;9537;45.594;9.294;2023-04-05T00:13:11;99807.47;;;9.07;40.84
18819;BME280;9537;45.594;9.294;2023-04-05T00:14:13;99812.75;;;9.07;41.43
18819;BME280;9537;45.594;9.294;2023-04-05T00:15:14;99807.34;;;9.08;41.55
18819;BME280;9537;45.594;9.294;2023-04-05T00:16:17;99813.41;;;9.00;41.22
18819;BME280;9537;45.594;9.294;2023-04-05T00:17:18;99812.06;;;8.96;41.74
18819;BME280;9537;45.594;9.294;2023-04-05T00:18:20;99806.81;;;8.96;41.26
18819;BME280;9537;45.594;9.294;2023-04-05T00:19:21;99808.94;;;8.93;41.63
18819;BME280;9537;45.594;9.294;2023-04-05T00:20:24;99803.19;;;8.97;41.36
18819;BME280;9537;45.594;9.294;2023-04-05T00:21:25;99815.66;;;8.95;41.12
18819;BME280;9537;45.594;9.294;2023-04-05T00:22:28;99810.06;;;8.90;41.37
18819;BME280;9537;45.594;9.294;2023-04-05T00:23:31;99812.53;;;8.92;40.89
18819;BME280;9537;45.594;9.294;2023-04-05T00:24:38;99815.34;;;8.90;41.00
18819;BME280;9537;45.594;9.294;2023-04-05T00:25:41;99813.22;;;8.94;40.54
18819;BME280;9537;45.594;9.294;2023-04-05T00:26:43;99814.34;;;8.91;40.33
18819;BME280;9537;45.594;9.294;2023-04-05T00:27:45;99807.44;;;8.90;40.59
18819;BME280;9537;45.594;9.294;2023-04-05T00:28:48;99811.22;;;8.88;40.36
18819;BME280;9537;45.594;9.294;2023-04-05T00:29:49;99814.66;;;8.88;40.28
18819;BME280;9537;45.594;9.294;2023-04-05T00:30:51;99809.41;;;8.88;40.62
18819;BME280;9537;45.594;9.294;2023-04-05T00:31:52;99809.72;;;8.85;40.49
18819;BME280;9537;45.594;9.294;2023-04-05T00:32:54;99810.69;;;8.84;40.92
18819;BME280;9537;45.594;9.294;2023-04-05T00:33:55;99813.63;;;8.81;40.82
18819;BME280;9537;45.594;9.294;2023-04-05T00:34:57;99810.69;;;8.84;40.06
18819;BME280;9537;45.594;9.294;2023-04-05T00:36:07;99811.16;;;8.79;39.71
18819;BME280;9537;45.594;9.294;2023-04-05T00:37:10;99812.66;;;8.82;39.99
18819;BME280;9537;45.594;9.294;2023-04-05T00:38:12;99806.09;;;8.86;39.83
18819;BME280;9537;45.594;9.294;2023-04-05T00:39:13;99808.72;;;8.86;40.10
18819;BME280;9537;45.594;9.294;2023-04-05T00:40:15;99814.50;;;8.90;40.30
18819;BME280;9537;45.594;9.294;2023-04-05T00:41:16;99806.75;;;8.88;39.78
18819;BME280;9537;45.594;9.294;2023-04-05T00:42:18;99808.59;;;8.88;39.26
18819;BME280;9537;45.594;9.294;2023-04-05T00:43:21;99803.31;;;8.88;39.97
18819;BME280;9537;45.594;9.294;2023-04-05T00:44:23;99796.06;;;8.90;39.99
18819;BME280;9537;45.594;9.294;2023-04-05T00:45:26;99800.50;;;8.89;39.50
18819;BME280;9537;45.594;9.294;2023-04-05T00:46:28;99794.41;;;8.89;39.45
18819;BME280;9537;45.594;9.294;2023-04-05T00:47:30;99801.66;;;8.87;39.82
18819;BME280;9537;45.594;9.294;2023-04-05T00:48:31;99796.69;;;8.84;39.85
18819;BME280;9537;45.594;9.294;2023-04-05T00:49:34;99799.81;;;8.79;40.26
18819;BME280;9537;45.594;9.294;2023-04-05T00:50:36;99796.50;;;8.77;40.04
18819;BME280;9537;45.594;9.294;2023-04-05T00:51:38;99796.50;;;8.77;40.13
18819;BME280;9537;45.594;9.294;2023-04-05T00:52:40;99803.41;;;8.78;40.65
18819;BME280;9537;45.594;9.294;2023-04-05T00:53:44;99800.97;;;8.76;40.51
18819;BME280;9537;45.594;9.294;2023-04-05T00:54:45;99800.97;;;8.76;40.56
18819;BME280;9537;45.594;9.294;2023-04-05T00:55:48;99795.78;;;8.67;40.72
18819;BME280;9537;45.594;9.294;2023-04-05T00:56:50;99797.72;;;8.56;40.90
18819;BME280;9537;45.594;9.294;2023-04-05T00:57:54;99799.38;;;8.57;41.25
18819;BME280;9537;45.594;9.294;2023-04-05T00:58:56;99796.38;;;8.52;41.74
18819;BME280;9537;45.594;9.294;2023-04-05T00:59:58;99798.03;;;8.53;40.78
18819;BME280;9537;45.594;9.294;2023-04-05T01:01:04;99797.38;;;8.51;41.35
18819;BME280;9537;45.594;9.294;2023-04-05T01:02:18;99793.91;;;8.51;41.16
18819;BME280;9537;45.594;9.294;2023-04-05T01:03:25;99793.59;;;8.54;41.64
18819;BME280;9537;45.594;9.294;2023-04-05T01:04:31;99791.66;;;8.56;41.48
18819;BME280;9537;45.594;9.294;2023-04-05T01:05:40;99790.47;;;8.50;42.17
18819;BME280;9537;45.594;9.294;2023-04-05T01:06:54;99790.59;;;8.49;41.56
18819;BME280;9537;45.594;9.294;2023-04-05T01:08:03;99791.09;;;8.52;41.99
18819;BME280;9537;45.594;9.294;2023-04-05T01:09:16;99789.63;;;8.50;42.34
18819;BME280;9537;45.594;9.294;2023-04-05T01:10:20;99791.72;;;8.46;42.26
18819;BME280;9537;45.594;9.294;2023-04-05T01:11:24;99783.00;;;8.46;43.03
18819;BME280;9537;45.594;9.294;2023-04-05T01:12:27;99787.78;;;8.42;43.12
18819;BME280;9537;45.594;9.294;2023-04-05T01:13:31;99780.94;;;8.31;43.36
18819;BME280;9537;45.594;9.294;2023-04-05T01:14:43;99789.44;;;8.25;42.70
18819;BME280;9537;45.594;9.294;2023-04-05T01:15:46;99790.25;;;8.26;42.80
18819;BME280;9537;45.594;9.294;2023-04-05T01:16:47;99789.75;;;8.22;42.84
18819;BME280;9537;45.594;9.294;2023-04-05T01:17:49;99786.31;;;8.22;43.12
18819;BME280;9537;45.594;9.294;2023-04-05T01:18:50;99785.63;;;8.20;44.09
18819;BME280;9537;45.594;9.294;2023-04-05T01:19:57;99794.13;;;8.13;43.74
18819;BME280;9537;45.594;9.294;2023-04-05T01:21:13;99793.63;;;8.10;43.39
18819;BME280;9537;45.594;9.294;2023-04-05T01:22:47;99791.44;;;8.05;44.04
18819;BME280;9537;45.594;9.294;2023-04-05T01:24:09;99792.28;;;7.88;45.08
18819;BME280;9537;45.594;9.294;2023-04-05T01:25:27;99793.13;;;7.88;44.56
18819;BME280;9537;45.594;9.294;2023-04-05T01:26:45;99792.88;;;8.00;45.26
18819;BME280;9537;45.594;9.294;2023-04-05T01:28:05;99788.91;;;7.96;45.77
18819;BME280;9537;45.594;9.294;2023-04-05T01:29:43;99792.13;;;7.89;45.68
18819;BME280;9537;45.594;9.294;2023-04-05T01:30:48;99795.44;;;7.92;45.20
18819;BME280;9537;45.594;9.294;2023-04-05T01:31:55;99789.50;;;7.89;46.62
18819;BME280;9537;45.594;9.294;2023-04-05T01:33:07;99790.19;;;7.92;46.06
18819;BME280;9537;45.594;9.294;2023-04-05T01:34:19;99791.00;;;7.92;45.51
18819;BME280;9537;45.594;9.294;2023-04-05T01:35:31;99798.25;;;7.90;45.70
18819;BME280;9537;45.594;9.294;2023-04-05T01:36:40;99789.06;;;7.94;45.59
18819;BME280;9537;45.594;9.294;2023-04-05T01:37:44;99797.47;;;7.98;45.66
18819;BME280;9537;45.594;9.294;2023-04-05T01:38:49;99785.66;;;8.02;45.31
18819;BME280;9537;45.594;9.294;2023-04-05T01:39:51;99793.56;;;8.02;45.17
18819;BME280;9537;45.594;9.294;2023-04-05T01:40:53;99790.31;;;8.08;45.06
18819;BME280;9537;45.594;9.294;2023-04-05T01:41:57;99796.09;;;8.11;45.45
18819;BME280;9537;45.594;9.294;2023-04-05T01:43:00;99790.69;;;8.13;44.59
18819;BME280;9537;45.594;9.294;2023-04-05T01:44:02;99786.06;;;8.15;44.85
18819;BME280;9537;45.594;9.294;2023-04-05T01:45:05;99792.19;;;8.16;45.13
18819;BME280;9537;45.594;9.294;2023-04-05T01:46:07;99785.19;;;8.24;44.03
18819;BME280;9537;45.594;9.294;2023-04-05T01:47:08;99786.81;;;8.25;43.98
18819;BME280;9537;45.594;9.294;2023-04-05T01:48:11;99781.38;;;8.27;44.08
18819;BME280;9537;45.594;9.294;2023-04-05T01:49:12;99793.56;;;8.28;43.46
18819;BME280;9537;45.594;9.294;2023-04-05T01:50:14;99790.78;;;8.29;42.67
18819;BME280;9537;45.594;9.294;2023-04-05T01:51:15;99789.81;;;8.30;42.53
18819;BME280;9537;45.594;9.294;2023-04-05T01:52:17;99781.91;;;8.30;41.59
18819;BME280;9537;45.594;9.294;2023-04-05T01:53:18;99787.19;;;8.30;42.13
18819;BME280;9537;45.594;9.294;2023-04-05T01:54:21;99783.66;;;8.40;41.44
18819;BME280;9537;45.594;9.294;2023-04-05T01:55:22;99788.19;;;8.38;41.90
18819;BME280;9537;45.594;9.294;2023-04-05T01:56:24;99784.75;;;8.37;40.96
18819;BME280;9537;45.594;9.294;2023-04-05T01:57:27;99782.66;;;8.41;40.98
18819;BME280;9537;45.594;9.294;2023-04-05T01:58:29;99780.19;;;8.39;41.23
18819;BME280;9537;45.594;9.294;2023-04-05T01:59:30;99790.91;;;8.46;40.80
18819;BME280;9537;45.594;9.294;2023-04-05T02:00:33;99788.97;;;8.48;41.28
18819;BME280;9537;45.594;9.294;2023-04-05T02:01:35;99792.41;;;8.48;41.18
18819;BME280;9537;45.594;9.294;2023-04-05T02:02:37;99786.31;;;8.48;41.04
18819;BME280;9537;45.594;9.294;2023-04-05T02:03:39;99791.28;;;8.51;40.96
18819;BME280;9537;45.594;9.294;2023-04-05T02:04:41;99793.41;;;8.55;41.08
18819;BME280;9537;45.594;9.294;2023-04-05T02:05:42;99795.78;;;8.59;41.41
18819;BME280;9537;45.594;9.294;2023-04-05T02:06:45;99790.50;;;8.59;41.68
18819;BME280;9537;45.594;9.294;2023-04-05T02:07:46;99792.97;;;8.60;41.80
18819;BME280;9537;45.594;9.294;2023-04-05T02:08:48;99791.16;;;8.61;41.07
18819;BME280;9537;45.594;9.294;2023-04-05T02:09:48;99789.34;;;8.61;41.45
18819;BME280;9537;45.594;9.294;2023-04-05T02:10:51;99792.97;;;8.60;41.67
18819;BME280;9537;45.594;9.294;2023-04-05T02:11:53;99797.91;;;8.63;42.02
18819;BME280;9537;45.594;9.294;2023-04-05T02:12:55;99786.41;;;8.64;41.62
18819;BME280;9537;45.594;9.294;2023-04-05T02:13:56;99788.56;;;8.69;41.59
18819;BME280;9537;45.594;9.294;2023-04-05T02:14:58;99795.47;;;8.70;41.51
18819;BME280;9537;45.594;9.294;2023-04-05T02:16:00;99786.94;;;8.68;41.11
18819;BME280;9537;45.594;9.294;2023-04-05T02:17:03;99786.59;;;8.71;41.21
18819;BME280;9537;45.594;9.294;2023-04-05T02:18:04;99787.56;;;8.70;40.93
18819;BME280;9537;45.594;9.294;2023-04-05T02:19:07;99785.63;;;8.72;41.43
18819;BME280;9537;45.594;9.294;2023-04-05T02:20:09;99787.13;;;8.74;40.22
18819;BME280;9537;45.594;9.294;2023-04-05T02:21:11;99791.38;;;8.75;40.33
18819;BME280;9537;45.594;9.294;2023-04-05T02:22:16;99784.34;;;8.76;41.00
18819;BME280;9537;45.594;9.294;2023-04-05T02:23:18;99788.59;;;8.77;40.56
18819;BME280;9537;45.594;9.294;2023-04-05T02:24:20;99783.19;;;8.78;40.16
18819;BME280;9537;45.594;9.294;2023-04-05T02:25:22;99784.97;;;8.78;40.92
18819;BME280;9537;45.594;9.294;2023-04-05T02:26:23;99786.66;;;8.79;40.48
18819;BME280;9537;45.594;9.294;2023-04-05T02:27:25;99788.28;;;8.80;40.67
18819;BME280;9537;45.594;9.294;2023-04-05T02:28:26;99794.56;;;8.79;40.35
18819;BME280;9537;45.594;9.294;2023-04-05T02:29:28;99789.28;;;8.79;40.80
18819;BME280;9537;45.594;9.294;2023-04-05T02:30:29;99791.25;;;8.77;41.83
18819;BME280;9537;45.594;9.294;2023-04-05T02:31:33;99789.25;;;8.71;41.55
18819;BME280;9537;45.594;9.294;2023-04-05T02:32:34;99796.47;;;8.69;41.80
18819;BME280;9537;45.594;9.294;2023-04-05T02:33:35;99787.56;;;8.70;42.40
18819;BME280;9537;45.594;9.294;2023-04-05T02:34:37;99788.75;;;8.67;42.14
18819;BME280;9537;45.594;9.294;2023-04-05T02:35:41;99792.19;;;8.68;41.95
18819;BME280;9537;45.594;9.294;2023-04-05T02:36:42;99792.84;;;8.70;41.80
18819;BME280;9537;45.594;9.294;2023-04-05T02:37:44;99793.16;;;8.67;41.56
18819;BME280;9537;45.594;9.294;2023-04-05T02:38:45;99792.19;;;8.68;42.34
18819;BME280;9537;45.594;9.294;2023-04-05T02:39:47;99794.47;;;8.63;42.81
18819;BME280;9537;45.594;9.294;2023-04-05T02:40:48;99791.84;;;8.63;43.35
18819;BME280;9537;45.594;9.294;2023-04-05T02:41:51;99796.41;;;8.61;44.00
18819;BME280;9537;45.594;9.294;2023-04-05T02:42:51;99791.97;;;8.61;43.97
18819;BME280;9537;45.594;9.294;2023-04-05T02:43:54;99794.09;;;8.57;44.66
18819;BME280;9537;45.594;9.294;2023-04-05T02:44:55;99795.25;;;8.55;44.88
18819;BME280;9537;45.594;9.294;2023-04-05T02:45:57;99785.19;;;8.50;44.64
18819;BME280;9537;45.594;9.294;2023-04-05T02:46:59;99784.66;;;8.47;44.80
18819;BME280;9537;45.594;9.294;2023-04-05T02:48:01;99789.63;;;8.50;44.75
18819;BME280;9537;45.594;9.294;2023-04-05T02:49:02;99796.84;;;8.48;44.02
18819;BME280;9537;45.594;9.294;2023-04-05T02:50:05;99791.72;;;8.46;44.24
18819;BME280;9537;45.594;9.294;2023-04-05T02:51:06;99788.47;;;8.44;44.75
18819;BME280;9537;45.594;9.294;2023-04-05T02:52:08;99798.00;;;8.45;44.85
18819;BME280;9537;45.594;9.294;2023-04-05T02:53:09;99785.81;;;8.44;44.33
18819;BME280;9537;45.594;9.294;2023-04-05T02:54:12;99791.09;;;8.44;44.69
18819;BME280;9537;45.594;9.294;2023-04-05T02:55:13;99790.22;;;8.44;44.54
18819;BME280;9537;45.594;9.294;2023-04-05T02:56:15;99790.78;;;8.47;44.43
18819;BME280;9537;45.594;9.294;2023-04-05T02:57:17;99789.41;;;8.43;44.79
18819;BME280;9537;45.594;9.294;2023-04-05T02:58:19;99791.66;;;8.38;46.06
18819;BME280;9537;45.594;9.294;2023-04-05T02:59:20;99791.47;;;8.31;46.36
18819;BME280;9537;45.594;9.294;2023-04-05T03:00:22;99796.56;;;8.33;45.46
18819;BME280;9537;45.594;9.294;2023-04-05T03:01:23;99791.47;;;8.31;46.31
18819;BME280;9537;45.594;9.294;2023-04-05T03:02:26;99791.63;;;8.30;46.02
18819;BME280;9537;45.594;9.294;2023-04-05T03:03:29;99792.75;;;8.27;45.88
18819;BME280;9537;45.594;9.294;2023-04-05T03:04:31;99785.19;;;8.24;46.29
18819;BME280;9537;45.594;9.294;2023-04-05T03:05:34;99795.84;;;8.23;46.62
18819;BME280;9537;45.594;9.294;2023-04-05T03:06:36;99791.72;;;8.20;46.84
18819;BME280;9537;45.594;9.294;2023-04-05T03:07:37;99786.63;;;8.19;47.80
18819;BME280;9537;45.594;9.294;2023-04-05T03:08:42;99789.69;;;8.14;47.23
18819;BME280;9537;45.594;9.294;2023-04-05T03:09:43;99789.38;;;8.17;46.36
18819;BME280;9537;45.594;9.294;2023-04-05T03:10:46;99793.63;;;8.10;46.57
18819;BME280;9537;45.594;9.294;2023-04-05T03:11:47;99790.31;;;8.08;46.93
18819;BME280;9537;45.594;9.294;2023-04-05T03:12:49;99798.34;;;8.06;47.46
18819;BME280;9537;45.594;9.294;2023-04-05T03:13:51;99792.13;;;8.07;46.98
18819;BME280;9537;45.594;9.294;2023-04-05T03:14:53;99789.50;;;8.07;46.46
18819;BME280;9537;45.594;9.294;2023-04-05T03:15:53;99792.25;;;8.06;47.29
18819;BME280;9537;45.594;9.294;2023-04-05T03:16:55;99792.88;;;8.00;46.89
18819;BME280;9537;45.594;9.294;2023-04-05T03:17:58;99795.88;;;8.05;45.80
18819;BME280;9537;45.594;9.294;2023-04-05T03:19:00;99792.13;;;8.07;45.81
18819;BME280;9537;45.594;9.294;2023-04-05T03:20:01;99790.63;;;8.05;45.40
18819;BME280;9537;45.594;9.294;2023-04-05T03:21:05;99799.34;;;8.05;44.67
18819;BME280;9537;45.594;9.294;2023-04-05T03:22:11;99793.63;;;8.10;44.76
18819;BME280;9537;45.594;9.294;2023-04-05T03:23:13;99790.81;;;8.11;44.10
18819;BME280;9537;45.594;9.294;2023-04-05T03:24:14;99792.47;;;8.12;43.98
18819;BME280;9537;45.594;9.294;2023-04-05T03:25:16;99794.66;;;8.17;43.69
18819;BME280;9537;45.594;9.294;2023-04-05T03:26:17;99798.28;;;8.16;43.76
18819;BME280;9537;45.594;9.294;2023-04-05T03:27:19;99789.38;;;8.17;43.52
18819;BME280;9537;45.594;9.294;2023-04-05T03:28:21;99789.91;;;8.21;43.91
18819;BME280;9537;45.594;9.294;2023-04-05T03:29:24;99796.66;;;8.23;44.15
18819;BME280;9537;45.594;9.294;2023-04-05T03:30:25;99790.56;;;8.23;43.69
18819;BME280;9537;45.594;9.294;2023-04-05T03:31:27;99794.72;;;8.25;44.09
18819;BME280;9537;45.594;9.294;2023-04-05T03:32:30;99794.72;;;8.25;44.08
18819;BME280;9537;45.594;9.294;2023-04-05T03:33:33;99790.78;;;8.29;43.99
18819;BME280;9537;45.594;9.294;2023-04-05T03:34:34;99790.63;;;8.31;43.89
18819;BME280;9537;45.594;9.294;2023-04-05T03:35:36;99789.63;;;8.32;43.78
18819;BME280;9537;45.594;9.294;2023-04-05T03:36:37;99786.06;;;8.33;42.80
18819;BME280;9537;45.594;9.294;2023-04-05T03:37:42;99790.00;;;8.37;42.42
18819;BME280;9537;45.594;9.294;2023-04-05T03:38:43;99790.72;;;8.39;42.18
18819;BME280;9537;45.594;9.294;2023-04-05T03:39:46;99789.19;;;8.37;42.91
18819;BME280;9537;45.594;9.294;2023-04-05T03:40:48;99795.81;;;8.41;43.43
18819;BME280;9537;45.594;9.294;2023-04-05T03:41:50;99786.09;;;8.41;42.92
18819;BME280;9537;45.594;9.294;2023-04-05T03:42:51;99780.03;;;8.41;43.52
18819;BME280;9537;45.594;9.294;2023-04-05T03:43:53;99787.09;;;8.40;43.68
18819;BME280;9537;45.594;9.294;2023-04-05T03:44:54;99789.72;;;8.40;44.08
18819;BME280;9537;45.594;9.294;2023-04-05T03:45:56;99786.09;;;8.41;43.59
18819;BME280;9537;45.594;9.294;2023-04-05T03:46:57;99785.81;;;8.44;44.15
18819;BME280;9537;45.594;9.294;2023-04-05T03:47:59;99787.78;;;8.42;43.25
18819;BME280;9537;45.594;9.294;2023-04-05T03:49:01;99789.59;;;8.42;43.54
18819;BME280;9537;45.594;9.294;2023-04-05T03:50:04;99781.84;;;8.40;43.99
18819;BME280;9537;45.594;9.294;2023-04-05T03:51:06;99783.34;;;8.43;43.15
18819;BME280;9537;45.594;9.294;2023-04-05T03:52:08;99774.44;;;8.44;42.83
18819;BME280;9537;45.594;9.294;2023-04-05T03:53:09;99780.69;;;8.43;42.67
18819;BME280;9537;45.594;9.294;2023-04-05T03:54:11;99778.06;;;8.43;43.20
18819;BME280;9537;45.594;9.294;2023-04-05T03:55:12;99777.25;;;8.42;42.57
18819;BME280;9537;45.594;9.294;2023-04-05T03:56:16;99778.06;;;8.43;42.93
18819;BME280;9537;45.594;9.294;2023-04-05T03:57:17;99779.72;;;8.44;42.24
18819;BME280;9537;45.594;9.294;2023-04-05T03:58:19;99777.59;;;8.47;42.68
18819;BME280;9537;45.594;9.294;2023-04-05T03:59:20;99779.56;;;8.45;42.23
18819;BME280;9537;45.594;9.294;2023-04-05T04:00:22;99777.59;;;8.47;42.64
18819;BME280;9537;45.594;9.294;2023-04-05T04:01:24;99782.03;;;8.47;42.91
18819;BME280;9537;45.594;9.294;2023-04-05T04:02:26;99783.53;;;8.49;42.77
18819;BME280;9537;45.594;9.294;2023-04-05T04:03:26;99787.66;;;8.52;42.94
18819;BME280;9537;45.594;9.294;2023-04-05T04:04:31;99781.56;;;8.51;43.57
18819;BME280;9537;45.594;9.294;2023-04-05T04:05:33;99781.75;;;8.50;43.83
18819;BME280;9537;45.594;9.294;2023-04-05T04:06:38;99783.69;;;8.48;43.44
18819;BME280;9537;45.594;9.294;2023-04-05T04:07:39;99780.75;;;8.51;42.86
18819;BME280;9537;45.594;9.294;2023-04-05T04:08:42;99787.66;;;8.52;42.64
18819;BME280;9537;45.594;9.294;2023-04-05T04:09:43;99778.13;;;8.51;43.29
18819;BME280;9537;45.594;9.294;2023-04-05T04:10:45;99785.19;;;8.50;43.04
18819;BME280;9537;45.594;9.294;2023-04-05T04:11:46;99784.19;;;8.51;43.16
18819;BME280;9537;45.594;9.294;2023-04-05T04:12:48;99786.84;;;8.51;43.37
18819;BME280;9537;45.594;9.294;2023-04-05T04:13:49;99782.88;;;8.47;43.58
18819;BME280;9537;45.594;9.294;2023-04-05T04:14:51;99787.16;;;8.48;44.12
18819;BME280;9537;45.594;9.294;2023-04-05T04:15:52;99792.41;;;8.48;43.58
18819;BME280;9537;45.594;9.294;2023-04-05T04:16:54;99779.56;;;8.45;43.92
18819;BME280;9537;45.594;9.294;2023-04-05T04:17:55;99785.81;;;8.44;42.99
18819;BME280;9537;45.594;9.294;2023-04-05T04:18:57;99786.47;;;8.46;43.58
18819;BME280;9537;45.594;9.294;2023-04-05T04:19:59;99782.69;;;8.49;42.85
18819;BME280;9537;45.594;9.294;2023-04-05T04:21:01;99784.19;;;8.51;43.22
18819;BME280;9537;45.594;9.294;2023-04-05T04:22:06;99782.38;;;8.52;43.36
18819;BME280;9537;45.594;9.294;2023-04-05T04:23:09;99779.41;;;8.47;42.88
18819;BME280;9537;45.594;9.294;2023-04-05T04:24:10;99789.78;;;8.48;42.83
18819;BME280;9537;45.594;9.294;2023-04-05T04:25:18;99778.56;;;8.46;42.45
18819;BME280;9537;45.594;9.294;2023-04-05T04:26:19;99789.47;;;8.51;42.20
18819;BME280;9537;45.594;9.294;2023-04-05T04:27:26;99777.13;;;8.52;42.05
18819;BME280;9537;45.594;9.294;2023-04-05T04:28:28;99786.69;;;8.53;42.22
18819;BME280;9537;45.594;9.294;2023-04-05T04:29:35;99784.06;;;8.53;42.32
18819;BME280;9537;45.594;9.294;2023-04-05T04:30:38;99787.00;;;8.50;42.32
18819;BME280;9537;45.594;9.294;2023-04-05T04:31:43;99792.28;;;8.50;42.42
18819;BME280;9537;45.594;9.294;2023-04-05T04:32:45;99785.34;;;8.49;42.39
18819;BME280;9537;45.594;9.294;2023-04-05T04:33:57;99788.28;;;8.46;42.53
18819;BME280;9537;45.594;9.294;2023-04-05T04:35:00;99788.47;;;8.44;42.06
18819;BME280;9537;45.594;9.294;2023-04-05T04:36:06;99785.81;;;8.44;42.29
18819;BME280;9537;45.594;9.294;2023-04-05T04:37:13;99782.19;;;8.45;42.77
18819;BME280;9537;45.594;9.294;2023-04-05T04:38:17;99787.47;;;8.45;42.73
18819;BME280;9537;45.594;9.294;2023-04-05T04:39:20;99787.47;;;8.45;42.24
18819;BME280;9537;45.594;9.294;2023-04-05T04:40:27;99785.81;;;8.44;41.87
18819;BME280;9537;45.594;9.294;2023-04-05T04:41:32;99791.09;;;8.44;41.76
18819;BME280;9537;45.594;9.294;2023-04-05T04:42:33;99791.72;;;8.46;41.24
18819;BME280;9537;45.594;9.294;2023-04-05T04:43:38;99781.38;;;8.45;40.91
18819;BME280;9537;45.594;9.294;2023-04-05T04:44:43;99785.97;;;8.43;41.47
18819;BME280;9537;45.594;9.294;2023-04-05T04:45:45;99778.88;;;8.43;41.01
18819;BME280;9537;45.594;9.294;2023-04-05T04:46:47;99786.97;;;8.42;41.17
18819;BME280;9537;45.594;9.294;2023-04-05T04:47:54;99783.34;;;8.43;40.61
18819;BME280;9537;45.594;9.294;2023-04-05T04:48:55;99782.50;;;8.42;40.44
18819;BME280;9537;45.594;9.294;2023-04-05T04:49:59;99785.28;;;8.41;41.49
18819;BME280;9537;45.594;9.294;2023-04-05T04:51:02;99779.88;;;8.42;40.88
18819;BME280;9537;45.594;9.294;2023-04-05T04:52:04;99775.28;;;8.44;40.48
18819;BME280;9537;45.594;9.294;2023-04-05T04:53:05;99785.81;;;8.44;41.28
18819;BME280;9537;45.594;9.294;2023-04-05T04:54:07;99785.66;;;8.46;40.70
18819;BME280;9537;45.594;9.294;2023-04-05T04:55:09;99780.06;;;8.49;40.15
18819;BME280;9537;45.594;9.294;2023-04-05T04:56:13;99784.38;;;8.50;40.96
18819;BME280;9537;45.594;9.294;2023-04-05T04:57:15;99778.44;;;8.48;40.95
18819;BME280;9537;45.594;9.294;2023-04-05T04:58:16;99784.97;;;8.44;40.54
18819;BME280;9537;45.594;9.294;2023-04-05T04:59:18;99779.72;;;8.44;41.14
18819;BME280;9537;45.594;9.294;2023-04-05T05:00:20;99783.84;;;8.46;40.72
18819;BME280;9537;45.594;9.294;2023-04-05T05:01:23;99781.88;;;8.48;40.85
18819;BME280;9537;45.594;9.294;2023-04-05T05:02:24;99787.28;;;8.47;40.73
18819;BME280;9537;45.594;9.294;2023-04-05T05:03:27;99787.81;;;8.50;40.54
18819;BME280;9537;45.594;9.294;2023-04-05T05:04:29;99796.84;;;8.48;40.86
18819;BME280;9537;45.594;9.294;2023-04-05T05:05:32;99793.53;;;8.46;41.39
18819;BME280;9537;45.594;9.294;2023-04-05T05:06:33;99789.91;;;8.47;40.97
18819;BME280;9537;45.594;9.294;2023-04-05T05:07:35;99792.28;;;8.50;41.62
18819;BME280;9537;45.594;9.294;2023-04-05T05:08:36;99788.78;;;8.49;41.16
18819;BME280;9537;45.594;9.294;2023-04-05T05:09:38;99800.16;;;8.50;42.09
18819;BME280;9537;45.594;9.294;2023-04-05T05:10:39;99791.41;;;8.49;41.52
18819;BME280;9537;45.594;9.294;2023-04-05T05:11:42;99795.19;;;8.47;41.63
18819;BME280;9537;45.594;9.294;2023-04-05T05:12:43;99797.16;;;8.45;41.41
18819;BME280;9537;45.594;9.294;2023-04-05T05:13:45;99802.44;;;8.45;41.57
18819;BME280;9537;45.594;9.294;2023-04-05T05:14:46;99798.91;;;8.36;41.12
18819;BME280;9537;45.594;9.294;2023-04-05T05:15:48;99808.75;;;8.34;40.90
18819;BME280;9537;45.594;9.294;2023-04-05T05:16:49;99803.47;;;8.34;41.78
18819;BME280;9537;45.594;9.294;2023-04-05T05:17:54;99805.75;;;8.29;41.99
18819;BME280;9537;45.594;9.294;2023-04-05T05:18:55;99802.16;;;8.30;41.94
18819;BME280;9537;45.594;9.294;2023-04-05T05:19:57;99807.69;;;8.27;42.30
18819;BME280;9537;45.594;9.294;2023-04-05T05:21:01;99809.00;;;8.23;42.04
18819;BME280;9537;45.594;9.294;2023-04-05T05:22:03;99806.47;;;8.13;43.94
18819;BME280;9537;45.594;9.294;2023-04-05T05:23:04;99804.66;;;8.13;44.45
18819;BME280;9537;45.594;9.294;2023-04-05T05:24:06;99815.69;;;8.17;44.65
18819;BME280;9537;45.594;9.294;2023-04-05T05:25:09;99813.22;;;8.16;44.70
18819;BME280;9537;45.594;9.294;2023-04-05T05:26:12;99813.75;;;8.19;44.41
18819;BME280;9537;45.594;9.294;2023-04-05T05:27:14;99815.56;;;8.19;44.90
18819;BME280;9537;45.594;9.294;2023-04-05T05:28:16;99812.94;;;8.19;44.99
18819;BME280;9537;45.594;9.294;2023-04-05T05:29:17;99810.81;;;8.22;44.76
18819;BME280;9537;45.594;9.294;2023-04-05T05:30:19;99811.41;;;8.16;45.36
18819;BME280;9537;45.594;9.294;2023-04-05T05:31:22;99813.31;;;8.06;47.24
18819;BME280;9537;45.594;9.294;2023-04-05T05:32:23;99816.94;;;8.05;47.67
18819;BME280;9537;45.594;9.294;2023-04-05T05:33:25;99817.88;;;8.04;47.09
18819;BME280;9537;45.594;9.294;2023-04-05T05:34:26;99820.81;;;8.01;47.92
18819;BME280;9537;45.594;9.294;2023-04-05T05:35:28;99812.78;;;8.02;48.18
18819;BME280;9537;45.594;9.294;2023-04-05T05:36:30;99814.22;;;7.97;48.16
18819;BME280;9537;45.594;9.294;2023-04-05T05:37:33;99815.66;;;7.91;48.60
18819;BME280;9537;45.594;9.294;2023-04-05T05:38:34;99820.25;;;7.89;48.40
18819;BME280;9537;45.594;9.294;2023-04-05T05:39:36;99821.53;;;7.85;48.62
18819;BME280;9537;45.594;9.294;2023-04-05T05:40:37;99822.97;;;7.79;48.32
18819;BME280;9537;45.594;9.294;2023-04-05T05:41:39;99826.84;;;7.75;49.14
18819;BME280;9537;45.594;9.294;2023-04-05T05:42:40;99818.59;;;7.70;48.83
18819;BME280;9537;45.594;9.294;2023-04-05T05:43:42;99821.88;;;7.72;48.77